createdAt,value
2019-05-12T00:00:07.953Z,51.01
2019-05-12T00:01:08.615Z,54.15
2019-05-12T00:02:07.698Z,47.78
2019-05-12T00:03:08.469Z,55.10
2019-05-12T00:04:08.236Z,55.58
2019-05-12T00:05:08.558Z,56.92
2019-05-12T00:06:08.626Z,54.25
2019-05-12T00:07:08.567Z,55.29
2019-05-12T00:08:08.282Z,58.06
2019-05-12T00:09:08.355Z,54.06
2019-05-12T00:10:08.417Z,55.49
2019-05-12T00:11:08.797Z,59.86
2019-05-12T00:12:08.230Z,75.67
2019-05-12T00:13:08.389Z,73.66
2019-05-12T00:14:08.466Z,74.04
2019-05-12T00:15:08.247Z,74.33
2019-05-12T00:16:08.602Z,62.34
2019-05-12T00:17:08.195Z,61.00
2019-05-12T00:18:08.844Z,61.86
2019-05-12T00:19:06.267Z,69.19
2019-05-12T00:20:08.329Z,70.14
2019-05-12T00:21:08.655Z,60.63
2019-05-12T00:22:07.678Z,57.58
2019-05-12T00:23:22.391Z,56.92
2019-05-12T00:24:08.026Z,59.39
2019-05-12T00:25:08.629Z,61.67
2019-05-12T00:26:07.937Z,59.96
2019-05-12T00:27:08.427Z,60.05
2019-05-12T00:28:07.835Z,55.58
2019-05-12T00:29:07.694Z,61.99
2019-05-12T00:30:09.651Z,65.29
2019-05-12T00:31:08.265Z,59.67
2019-05-12T00:32:08.458Z,54.06
2019-05-12T00:33:08.945Z,53.58
2019-05-12T00:34:07.751Z,53.70
2019-05-12T00:35:07.799Z,59.48
2019-05-12T00:36:08.031Z,58.75
2019-05-12T00:37:08.194Z,57.01
2019-05-12T00:38:08.655Z,57.99
2019-05-12T00:39:07.969Z,58.44
2019-05-12T00:40:08.211Z,56.92
2019-05-12T00:41:06.094Z,54.15
2019-05-12T00:42:07.826Z,51.58
2019-05-12T00:43:08.465Z,51.20
2019-05-12T00:44:08.198Z,59.20
2019-05-12T00:45:08.150Z,57.01
2019-05-12T00:46:07.955Z,55.29
2019-05-12T00:47:08.043Z,54.63
2019-05-12T00:48:08.731Z,59.01
2019-05-12T00:49:08.071Z,58.91
2019-05-12T00:50:08.042Z,59.01
2019-05-12T00:51:07.735Z,58.44
2019-05-12T00:52:08.014Z,59.48
2019-05-12T00:53:08.619Z,59.67
2019-05-12T00:54:05.992Z,61.19
2019-05-12T00:55:07.982Z,64.24
2019-05-12T00:56:08.314Z,76.23
2019-05-12T00:57:07.759Z,77.76
2019-05-12T00:58:08.183Z,72.42
2019-05-12T00:59:08.129Z,74.90
2019-05-12T01:00:05.946Z,68.33
2019-05-12T01:01:08.162Z,80.90
2019-05-12T01:02:07.922Z,83.75
2019-05-12T01:03:08.413Z,85.08
2019-05-12T01:04:08.521Z,76.42
2019-05-12T01:05:08.388Z,73.85
2019-05-12T01:06:08.242Z,70.05
2019-05-12T01:07:05.892Z,66.72
2019-05-12T01:08:08.489Z,61.96
2019-05-12T01:09:08.551Z,62.53
2019-05-12T01:10:05.867Z,63.01
2019-05-12T01:11:05.858Z,62.91
2019-05-12T01:12:07.814Z,58.53
2019-05-12T01:13:08.268Z,57.77
2019-05-12T01:14:05.838Z,72.90
2019-05-12T01:15:07.481Z,74.90
2019-05-12T01:16:07.969Z,72.05
2019-05-12T01:17:05.809Z,65.77
2019-05-12T01:18:05.802Z,65.58
2019-05-12T01:19:07.938Z,62.05
2019-05-12T01:20:05.786Z,61.67
2019-05-12T01:21:07.744Z,58.62
2019-05-12T01:22:07.626Z,57.48
2019-05-12T01:23:08.219Z,53.49
2019-05-12T01:24:08.319Z,54.06
2019-05-12T01:25:08.360Z,55.29
2019-05-12T01:26:05.740Z,55.29
2019-05-12T01:27:05.731Z,56.24
2019-05-12T01:28:07.946Z,58.44
2019-05-12T01:29:05.715Z,61.67
2019-05-12T01:30:05.709Z,56.34
2019-05-12T01:31:05.698Z,58.53
2019-05-12T01:32:07.937Z,59.96
2019-05-12T01:33:08.263Z,59.48
2019-05-12T01:34:07.938Z,65.19
2019-05-12T01:35:07.958Z,72.71
2019-05-12T01:36:07.822Z,70.24
2019-05-12T01:37:07.878Z,71.00
2019-05-12T01:38:07.752Z,91.17
2019-05-12T01:39:07.744Z,97.55
2019-05-12T01:40:05.631Z,90.89
2019-05-12T01:41:05.632Z,85.28
2019-05-12T01:42:05.614Z,87.08
2019-05-12T01:43:08.229Z,90.13
2019-05-12T01:44:05.599Z,92.60
2019-05-12T01:45:05.595Z,90.70
2019-05-12T01:46:07.887Z,87.46
2019-05-12T01:47:08.232Z,92.89
2019-05-12T01:48:08.314Z,93.74
2019-05-12T01:49:07.980Z,89.94
2019-05-12T01:50:05.554Z,89.94
2019-05-12T01:51:05.544Z,85.56
2019-05-12T01:52:05.541Z,88.60
2019-05-12T01:53:07.923Z,86.04
2019-05-12T01:54:11.700Z,82.99
2019-05-12T01:55:05.515Z,82.70
2019-05-12T01:56:07.712Z,84.52
2019-05-12T01:57:05.503Z,85.85
2019-05-12T01:58:05.498Z,87.65
2019-05-12T01:59:05.482Z,84.04
2019-05-12T02:00:07.929Z,85.85
2019-05-12T02:01:05.464Z,86.32
2019-05-12T02:02:05.460Z,88.32
2019-05-12T02:03:05.462Z,87.27
2019-05-12T02:04:07.631Z,86.80
2019-05-12T02:05:08.241Z,85.75
2019-05-12T02:06:05.427Z,85.56
2019-05-12T02:07:05.427Z,84.04
2019-05-12T02:08:05.410Z,81.95
2019-05-12T02:09:05.407Z,81.47
2019-05-12T02:10:05.400Z,79.19
2019-05-12T02:11:07.849Z,73.95
2019-05-12T02:12:05.390Z,72.90
2019-05-12T02:13:07.733Z,70.81
2019-05-12T02:14:05.371Z,68.81
2019-05-12T02:15:07.993Z,68.33
2019-05-12T02:16:05.352Z,66.53
2019-05-12T02:17:05.353Z,66.05
2019-05-12T02:18:05.351Z,65.77
2019-05-12T02:19:05.330Z,65.00
2019-05-12T02:20:07.615Z,66.14
2019-05-12T02:21:05.317Z,63.76
2019-05-12T02:22:05.305Z,62.81
2019-05-12T02:23:05.299Z,62.91
2019-05-12T02:24:07.599Z,63.10
2019-05-12T02:25:07.936Z,64.90
2019-05-12T02:26:05.279Z,66.81
2019-05-12T02:27:05.266Z,65.95
2019-05-12T02:28:05.267Z,65.95
2019-05-12T02:29:07.700Z,64.81
2019-05-12T02:30:09.289Z,65.86
2019-05-12T02:31:05.235Z,67.29
2019-05-12T02:32:05.230Z,67.57
2019-05-12T02:33:05.433Z,67.10
2019-05-12T02:34:05.774Z,64.81
2019-05-12T02:35:05.877Z,65.29
2019-05-12T02:36:05.202Z,64.72
2019-05-12T02:37:05.578Z,65.10
2019-05-12T02:38:05.503Z,65.10
2019-05-12T02:39:05.421Z,64.24
2019-05-12T02:40:05.235Z,62.81
2019-05-12T02:41:05.160Z,62.72
2019-05-12T02:42:05.329Z,64.34
2019-05-12T02:43:05.843Z,64.24
2019-05-12T02:44:05.522Z,64.43
2019-05-12T02:45:05.695Z,64.62
2019-05-12T02:46:05.134Z,62.43
2019-05-12T02:47:05.356Z,63.57
2019-05-12T02:48:05.645Z,63.29
2019-05-12T02:49:05.335Z,63.57
2019-05-12T02:50:05.397Z,62.62
2019-05-12T02:51:05.641Z,61.86
2019-05-12T02:52:05.245Z,62.05
2019-05-12T02:53:05.510Z,61.38
2019-05-12T02:54:05.523Z,62.15
2019-05-12T02:55:06.398Z,62.72
2019-05-12T02:56:05.309Z,61.86
2019-05-12T02:57:05.038Z,59.96
2019-05-12T02:58:05.921Z,59.67
2019-05-12T02:59:05.547Z,59.39
2019-05-12T03:00:05.351Z,57.96
2019-05-12T03:01:05.617Z,58.91
2019-05-12T03:02:05.412Z,59.77
2019-05-12T03:03:05.544Z,59.96
2019-05-12T03:04:05.831Z,59.29
2019-05-12T03:05:05.701Z,58.62
2019-05-12T03:06:05.661Z,59.29
2019-05-12T03:07:06.504Z,59.01
2019-05-12T03:08:05.255Z,59.10
2019-05-12T03:09:05.056Z,59.01
2019-05-12T03:10:05.269Z,59.58
2019-05-12T03:11:06.063Z,57.96
2019-05-12T03:12:05.867Z,56.34
2019-05-12T03:13:05.051Z,57.58
2019-05-12T03:14:04.915Z,56.63
2019-05-12T03:15:05.626Z,58.06
2019-05-12T03:16:05.264Z,56.82
2019-05-12T03:17:04.900Z,56.24
2019-05-12T03:18:40.784Z,55.20
2019-05-12T03:19:05.402Z,54.91
2019-05-12T03:20:05.171Z,55.58
2019-05-12T03:21:05.792Z,56.24
2019-05-12T03:22:05.257Z,55.29
2019-05-12T03:23:06.365Z,58.06
2019-05-12T03:24:06.049Z,59.01
2019-05-12T03:25:15.341Z,57.01
2019-05-12T03:26:05.337Z,59.77
2019-05-12T03:27:04.814Z,61.19
2019-05-12T03:28:08.142Z,59.58
2019-05-12T03:29:05.999Z,59.67
2019-05-12T03:30:09.820Z,60.82
2019-05-12T03:31:07.794Z,59.86
2019-05-12T03:32:08.217Z,58.72
2019-05-12T03:33:09.329Z,56.82
2019-05-12T03:34:09.214Z,58.44
2019-05-12T03:35:08.666Z,56.72
2019-05-12T03:36:08.893Z,57.96
2019-05-12T03:37:07.817Z,56.72
2019-05-12T03:38:04.736Z,56.05
2019-05-12T03:39:04.717Z,56.34
2019-05-12T03:40:05.594Z,56.24
2019-05-12T03:41:05.481Z,55.58
2019-05-12T03:42:05.290Z,57.87
2019-05-12T03:43:05.608Z,55.49
2019-05-12T03:44:05.260Z,58.25
2019-05-12T03:45:04.940Z,57.58
2019-05-12T03:46:05.434Z,55.96
2019-05-12T03:47:05.185Z,55.49
2019-05-12T03:48:04.650Z,55.58
2019-05-12T03:49:05.504Z,55.29
2019-05-12T03:50:04.903Z,54.53
2019-05-12T03:51:05.737Z,55.49
2019-05-12T03:52:05.203Z,55.20
2019-05-12T03:53:10.104Z,52.63
2019-05-12T03:54:05.214Z,52.15
2019-05-12T03:55:05.603Z,51.39
2019-05-12T03:56:04.698Z,52.06
2019-05-12T03:57:04.707Z,50.82
2019-05-12T03:58:04.760Z,49.11
2019-05-12T03:59:05.097Z,48.06
2019-05-12T04:00:05.318Z,49.11
2019-05-12T04:01:04.894Z,49.20
2019-05-12T04:02:04.957Z,49.11
2019-05-12T04:03:05.030Z,49.20
2019-05-12T04:04:05.262Z,51.10
2019-05-12T04:05:05.411Z,50.73
2019-05-12T04:06:04.964Z,51.20
2019-05-12T04:07:05.319Z,52.06
2019-05-12T04:08:05.651Z,53.30
2019-05-12T04:09:04.801Z,52.25
2019-05-12T04:10:05.406Z,53.01
2019-05-12T04:11:05.495Z,53.58
2019-05-12T04:12:05.356Z,54.15
2019-05-12T04:13:04.861Z,53.49
2019-05-12T04:14:05.529Z,53.77
2019-05-12T04:15:05.369Z,53.67
2019-05-12T04:16:04.983Z,53.96
2019-05-12T04:17:04.944Z,53.20
2019-05-12T04:18:05.870Z,55.10
2019-05-12T04:19:05.492Z,56.72
2019-05-12T04:20:04.993Z,55.39
2019-05-12T04:21:05.524Z,56.72
2019-05-12T04:22:05.518Z,56.92
2019-05-12T04:23:06.026Z,55.58
2019-05-12T04:24:05.738Z,54.25
2019-05-12T04:25:06.072Z,53.20
2019-05-12T04:26:10.961Z,54.06
2019-05-12T04:27:05.391Z,54.06
2019-05-12T04:28:04.941Z,54.27
2019-05-12T04:29:05.269Z,55.32
2019-05-12T04:30:05.469Z,60.18
2019-05-12T04:31:05.500Z,62.53
2019-05-12T04:32:05.246Z,61.58
2019-05-12T04:33:04.908Z,59.67
2019-05-12T04:34:05.344Z,62.72
2019-05-12T04:35:04.880Z,62.05
2019-05-12T04:36:05.550Z,60.34
2019-05-12T04:37:04.643Z,61.77
2019-05-12T04:38:04.765Z,60.72
2019-05-12T04:39:04.400Z,60.34
2019-05-12T04:40:05.416Z,60.15
2019-05-12T04:41:05.853Z,59.48
2019-05-12T04:42:05.302Z,59.48
2019-05-12T04:43:05.934Z,58.15
2019-05-12T04:44:05.851Z,56.92
2019-05-12T04:45:04.649Z,56.63
2019-05-12T04:46:05.052Z,58.91
2019-05-12T04:47:05.613Z,59.48
2019-05-12T04:48:05.589Z,59.58
2019-05-12T04:49:05.229Z,59.20
2019-05-12T04:50:05.493Z,60.82
2019-05-12T04:51:04.990Z,60.24
2019-05-12T04:52:05.317Z,60.24
2019-05-12T04:53:05.967Z,60.05
2019-05-12T04:54:05.871Z,61.77
2019-05-12T04:55:04.897Z,60.63
2019-05-12T04:56:14.707Z,59.20
2019-05-12T04:57:04.286Z,56.63
2019-05-12T04:58:04.727Z,58.25
2019-05-12T04:59:04.931Z,64.24
2019-05-12T05:00:05.099Z,61.86
2019-05-12T05:01:06.344Z,60.24
2019-05-12T05:02:05.491Z,59.86
2019-05-12T05:03:05.113Z,62.53
2019-05-12T05:04:05.512Z,60.44
2019-05-12T05:05:05.334Z,60.15
2019-05-12T05:06:04.617Z,62.72
2019-05-12T05:07:04.555Z,62.24
2019-05-12T05:08:04.627Z,62.72
2019-05-12T05:09:05.104Z,61.58
2019-05-12T05:10:04.789Z,61.58
2019-05-12T05:11:04.235Z,60.53
2019-05-12T05:12:04.664Z,61.38
2019-05-12T05:13:05.072Z,63.96
2019-05-12T05:14:04.399Z,63.76
2019-05-12T05:15:05.462Z,62.91
2019-05-12T05:16:05.430Z,60.15
2019-05-12T05:17:05.578Z,63.57
2019-05-12T05:18:06.198Z,64.43
2019-05-12T05:19:03.953Z,63.76
2019-05-12T05:20:04.190Z,62.05
2019-05-12T05:21:04.714Z,62.43
2019-05-12T05:22:04.384Z,62.91
2019-05-12T05:23:04.173Z,63.48
2019-05-12T05:24:04.126Z,63.57
2019-05-12T05:25:04.319Z,63.67
2019-05-12T05:26:03.904Z,69.48
2019-05-12T05:27:04.440Z,69.79
2019-05-12T05:28:04.225Z,69.38
2019-05-12T05:29:04.386Z,69.42
2019-05-12T05:30:04.175Z,71.13
2019-05-12T05:31:03.867Z,69.60
2019-05-12T05:32:03.871Z,72.27
2019-05-12T05:33:04.902Z,73.70
2019-05-12T05:34:04.847Z,73.70
2019-05-12T05:35:07.188Z,73.03
2019-05-12T05:36:03.828Z,71.98
2019-05-12T05:37:05.217Z,69.76
2019-05-12T05:38:04.440Z,72.33
2019-05-12T05:39:04.313Z,72.71
2019-05-12T05:40:04.068Z,71.47
2019-05-12T05:41:06.072Z,73.70
2019-05-12T05:42:04.570Z,75.67
2019-05-12T05:43:12.389Z,79.09
2019-05-12T05:44:03.767Z,78.33
2019-05-12T05:45:04.854Z,77.56
2019-05-12T05:46:07.801Z,77.28
2019-05-12T05:47:04.404Z,75.57
2019-05-12T05:48:07.466Z,75.57
2019-05-12T05:49:04.305Z,74.99
2019-05-12T05:50:04.784Z,73.95
2019-05-12T05:51:05.673Z,73.38
2019-05-12T05:52:03.708Z,75.28
2019-05-12T05:53:04.199Z,74.71
2019-05-12T05:54:04.093Z,76.46
2019-05-12T05:55:05.798Z,78.61
2019-05-12T05:56:04.126Z,78.65
2019-05-12T05:57:06.103Z,77.51
2019-05-12T05:58:08.557Z,78.27
2019-05-12T05:59:04.533Z,77.80
2019-05-12T06:00:07.123Z,78.08
2019-05-12T06:01:07.783Z,79.03
2019-05-12T06:02:04.947Z,77.98
2019-05-12T06:03:05.454Z,79.99
2019-05-12T06:04:08.379Z,79.60
2019-05-12T06:05:04.413Z,79.41
2019-05-12T06:06:10.779Z,80.36
2019-05-12T06:07:04.134Z,86.84
2019-05-12T06:08:04.336Z,82.46
2019-05-12T06:09:03.755Z,82.08
2019-05-12T06:10:04.139Z,80.84
2019-05-12T06:11:04.488Z,79.32
2019-05-12T06:12:07.549Z,80.36
2019-05-12T06:13:04.210Z,79.80
2019-05-12T06:14:11.604Z,81.41
2019-05-12T06:15:04.163Z,81.98
2019-05-12T06:16:04.388Z,85.03
2019-05-12T06:17:04.285Z,84.94
2019-05-12T06:18:03.875Z,85.32
2019-05-12T06:19:03.650Z,81.98
2019-05-12T06:20:04.469Z,81.76
2019-05-12T06:21:03.650Z,78.71
2019-05-12T06:22:04.027Z,79.13
2019-05-12T06:23:04.278Z,78.27
2019-05-12T06:24:03.744Z,78.85
2019-05-12T06:25:04.886Z,78.08
2019-05-12T06:26:04.659Z,76.84
2019-05-12T06:27:14.328Z,76.46
2019-05-12T06:28:04.607Z,84.84
2019-05-12T06:29:04.507Z,82.37
2019-05-12T06:30:06.184Z,81.13
2019-05-12T06:31:04.288Z,86.84
2019-05-12T06:32:06.270Z,83.94
2019-05-12T06:33:04.233Z,83.18
2019-05-12T06:34:06.181Z,82.56
2019-05-12T06:35:04.558Z,83.22
2019-05-12T06:36:04.482Z,86.08
2019-05-12T06:37:11.974Z,85.70
2019-05-12T06:38:04.965Z,83.28
2019-05-12T06:39:04.355Z,83.41
2019-05-12T06:40:03.698Z,83.37
2019-05-12T06:41:03.671Z,85.37
2019-05-12T06:42:12.255Z,82.04
2019-05-12T06:43:04.383Z,84.13
2019-05-12T06:44:03.797Z,85.56
2019-05-12T06:45:03.868Z,85.70
2019-05-12T06:46:03.705Z,84.75
2019-05-12T06:47:08.045Z,83.41
2019-05-12T06:48:03.472Z,82.93
2019-05-12T06:49:10.199Z,83.41
2019-05-12T06:50:03.867Z,82.08
2019-05-12T06:51:03.999Z,83.41
2019-05-12T06:52:07.035Z,85.99
2019-05-12T06:53:04.984Z,84.56
2019-05-12T06:54:07.407Z,85.13
2019-05-12T06:55:04.066Z,84.17
2019-05-12T06:56:04.509Z,86.08
2019-05-12T06:57:18.644Z,85.03
2019-05-12T06:58:04.662Z,87.65
2019-05-12T06:59:09.870Z,89.36
2019-05-12T07:00:04.507Z,89.26
2019-05-12T07:01:10.120Z,91.08
2019-05-12T07:02:03.468Z,90.89
2019-05-12T07:03:03.972Z,88.79
2019-05-12T07:04:08.264Z,89.36
2019-05-12T07:05:04.331Z,92.89
2019-05-12T07:06:04.092Z,90.50
2019-05-12T07:07:03.625Z,93.65
2019-05-12T07:08:04.168Z,91.84
2019-05-12T07:09:09.164Z,90.22
2019-05-12T07:10:11.881Z,93.17
2019-05-12T07:11:05.902Z,92.32
2019-05-12T07:12:06.960Z,89.84
2019-05-12T07:13:05.673Z,90.22
2019-05-12T07:14:07.782Z,92.89
2019-05-12T07:15:03.754Z,92.22
2019-05-12T07:16:03.708Z,91.74
2019-05-12T07:17:05.860Z,92.60
2019-05-12T07:18:04.304Z,97.17
2019-05-12T07:19:09.630Z,95.27
2019-05-12T07:20:04.015Z,93.55
2019-05-12T07:21:04.134Z,92.98
2019-05-12T07:22:03.615Z,93.93
2019-05-12T07:23:03.982Z,93.74
2019-05-12T07:24:06.693Z,94.32
2019-05-12T07:25:04.492Z,91.65
2019-05-12T07:26:05.019Z,94.22
2019-05-12T07:27:08.990Z,93.37
2019-05-12T07:28:07.508Z,93.17
2019-05-12T07:29:04.452Z,88.79
2019-05-12T07:30:04.752Z,90.79
2019-05-12T07:31:03.904Z,90.89
2019-05-12T07:32:07.113Z,90.60
2019-05-12T07:33:04.428Z,90.89
2019-05-12T07:34:07.180Z,92.41
2019-05-12T07:35:03.895Z,90.70
2019-05-12T07:36:06.335Z,93.74
2019-05-12T07:37:04.403Z,94.51
2019-05-12T07:38:04.655Z,91.65
2019-05-12T07:39:04.300Z,91.27
2019-05-12T07:40:04.815Z,95.17
2019-05-12T07:41:08.872Z,93.46
2019-05-12T07:42:03.643Z,94.17
2019-05-12T07:43:03.993Z,94.65
2019-05-12T07:44:03.644Z,94.56
2019-05-12T07:45:03.995Z,95.03
2019-05-12T07:46:06.924Z,97.22
2019-05-12T07:47:03.572Z,99.13
2019-05-12T07:48:05.698Z,97.32
2019-05-12T07:49:03.913Z,97.80
2019-05-12T07:50:04.508Z,99.99
2019-05-12T07:51:04.201Z,99.32
2019-05-12T07:52:03.624Z,98.70
2019-05-12T07:53:04.154Z,99.99
2019-05-12T07:54:04.062Z,99.46
2019-05-12T07:55:04.329Z,99.99
2019-05-12T07:56:04.177Z,99.99
2019-05-12T07:57:11.456Z,99.99
2019-05-12T07:58:09.968Z,99.99
2019-05-12T07:59:04.368Z,99.99
2019-05-12T08:00:03.649Z,99.99
2019-05-12T08:01:07.197Z,99.99
2019-05-12T08:02:03.875Z,99.99
2019-05-12T08:03:06.298Z,99.99
2019-05-12T08:04:04.502Z,99.99
2019-05-12T08:05:03.801Z,99.99
2019-05-12T08:06:04.629Z,99.99
2019-05-12T08:07:03.888Z,99.99
2019-05-12T08:08:08.697Z,99.99
2019-05-12T08:09:04.156Z,99.99
2019-05-12T08:10:07.313Z,99.99
2019-05-12T08:11:04.408Z,99.99
2019-05-12T08:12:04.001Z,99.99
2019-05-12T08:13:04.353Z,99.99
2019-05-12T08:14:03.595Z,99.99
2019-05-12T08:15:05.412Z,99.99
2019-05-12T08:16:03.718Z,99.99
2019-05-12T08:17:11.176Z,99.99
2019-05-12T08:18:07.427Z,99.99
2019-05-12T08:19:03.985Z,99.99
2019-05-12T08:20:04.516Z,99.99
2019-05-12T08:21:03.819Z,99.99
2019-05-12T08:22:04.304Z,99.99
2019-05-12T08:23:05.762Z,99.99
2019-05-12T08:24:03.814Z,99.99
2019-05-12T08:25:04.199Z,99.99
2019-05-12T08:26:11.431Z,99.99
2019-05-12T08:27:06.245Z,99.99
2019-05-12T08:28:14.522Z,99.99
2019-05-12T08:29:04.210Z,99.99
2019-05-12T08:30:06.025Z,99.99
2019-05-12T08:31:03.596Z,99.99
2019-05-12T08:32:03.828Z,99.99
2019-05-12T08:33:09.213Z,99.99
2019-05-12T08:34:04.203Z,99.99
2019-05-12T08:35:04.877Z,99.99
2019-05-12T08:36:11.091Z,99.99
2019-05-12T08:37:04.381Z,99.99
2019-05-12T08:38:03.953Z,99.99
2019-05-12T08:39:05.901Z,99.99
2019-05-12T08:40:04.292Z,99.99
2019-05-12T08:41:04.268Z,99.99
2019-05-12T08:42:04.088Z,99.99
2019-05-12T08:43:07.985Z,99.99
2019-05-12T08:44:04.551Z,99.99
2019-05-12T08:45:04.103Z,99.99
2019-05-12T08:46:10.025Z,90.53
2019-05-12T08:47:03.932Z,79.91
2019-05-12T08:48:03.870Z,78.95
2019-05-12T08:49:05.259Z,71.56
2019-05-12T08:50:04.830Z,65.84
2019-05-12T08:51:05.344Z,64.05
2019-05-12T08:52:03.828Z,62.07
2019-05-12T08:53:04.636Z,59.32
2019-05-12T08:54:07.051Z,58.29
2019-05-12T08:55:04.297Z,56.33
2019-05-12T08:56:06.654Z,54.12
2019-05-12T08:57:03.891Z,54.57
2019-05-12T08:58:03.765Z,55.69
2019-05-12T08:59:04.345Z,56.34
2019-05-12T09:00:06.746Z,57.95
2019-05-12T09:01:04.447Z,59.26
2019-05-12T09:02:07.250Z,60.16
2019-05-12T09:03:03.582Z,62.90
2019-05-12T09:04:06.554Z,66.70
2019-05-12T09:05:04.634Z,67.66
2019-05-12T09:06:04.105Z,67.18
2019-05-12T09:07:04.410Z,67.50
2019-05-12T09:08:03.794Z,63.54
2019-05-12T09:09:03.464Z,60.70
2019-05-12T09:10:04.178Z,59.09
2019-05-12T09:11:03.520Z,56.44
2019-05-12T09:12:03.536Z,54.01
2019-05-12T09:13:03.996Z,54.46
2019-05-12T09:14:03.563Z,56.60
2019-05-12T09:15:04.456Z,54.42
2019-05-12T09:16:04.360Z,53.56
2019-05-12T09:17:07.188Z,53.11
2019-05-12T09:18:04.662Z,52.26
2019-05-12T09:19:04.677Z,51.04
2019-05-12T09:20:08.207Z,50.10
2019-05-12T09:21:03.727Z,48.21
2019-05-12T09:22:05.537Z,46.91
2019-05-12T09:23:04.731Z,45.65
2019-05-12T09:24:04.197Z,44.32
2019-05-12T09:25:06.126Z,43.94
2019-05-12T09:26:04.127Z,42.38
2019-05-12T09:27:07.002Z,42.88
2019-05-12T09:28:03.771Z,41.44
2019-05-12T09:29:03.478Z,40.86
2019-05-12T09:30:08.053Z,41.05
2019-05-12T09:31:03.683Z,41.51
2019-05-12T09:32:07.381Z,40.86
2019-05-12T09:33:04.077Z,40.37
2019-05-12T09:34:05.851Z,39.29
2019-05-12T09:35:04.010Z,39.51
2019-05-12T09:36:04.313Z,38.64
2019-05-12T09:37:04.033Z,37.68
2019-05-12T09:38:03.700Z,37.48
2019-05-12T09:39:03.838Z,37.41
2019-05-12T09:40:04.594Z,36.44
2019-05-12T09:41:03.328Z,36.46
2019-05-12T09:42:03.801Z,35.38
2019-05-12T09:43:06.357Z,35.11
2019-05-12T09:44:04.471Z,34.53
2019-05-12T09:45:06.137Z,34.94
2019-05-12T09:46:04.173Z,34.94
2019-05-12T09:47:04.069Z,34.72
2019-05-12T09:48:04.956Z,34.42
2019-05-12T09:49:04.129Z,35.08
2019-05-12T09:50:04.330Z,36.31
2019-05-12T09:51:05.067Z,36.66
2019-05-12T09:52:03.682Z,37.59
2019-05-12T09:53:09.269Z,39.49
2019-05-12T09:54:05.053Z,41.67
2019-05-12T09:55:04.230Z,42.81
2019-05-12T09:56:04.489Z,43.94
2019-05-12T09:57:04.371Z,44.87
2019-05-12T09:58:03.952Z,46.58
2019-05-12T09:59:16.671Z,47.06
2019-05-12T10:00:04.504Z,47.99
2019-05-12T10:01:03.592Z,48.47
2019-05-12T10:02:03.667Z,47.99
2019-05-12T10:03:04.806Z,48.28
2019-05-12T10:04:03.455Z,49.24
2019-05-12T10:05:03.941Z,48.44
2019-05-12T10:06:03.664Z,48.25
2019-05-12T10:07:03.829Z,47.20
2019-05-12T10:08:04.573Z,48.44
2019-05-12T10:09:03.436Z,49.79
2019-05-12T10:10:03.711Z,50.26
2019-05-12T10:11:03.731Z,50.00
2019-05-12T10:12:05.338Z,50.10
2019-05-12T10:13:04.652Z,50.38
2019-05-12T10:14:06.466Z,50.00
2019-05-12T10:15:04.303Z,49.71
2019-05-12T10:16:04.995Z,49.24
2019-05-12T10:17:03.578Z,48.75
2019-05-12T10:18:06.580Z,48.44
2019-05-12T10:19:04.018Z,48.35
2019-05-12T10:20:02.530Z,48.54
2019-05-12T10:21:02.490Z,47.11
2019-05-12T10:22:02.490Z,45.67
2019-05-12T10:23:04.398Z,45.62
2019-05-12T10:24:04.944Z,44.23
2019-05-12T10:25:04.032Z,42.27
2019-05-12T10:26:09.459Z,40.88
2019-05-12T10:27:03.849Z,39.45
2019-05-12T10:28:11.145Z,38.02
2019-05-12T10:29:14.138Z,36.52
2019-05-12T10:30:11.444Z,35.19
2019-05-12T10:31:04.174Z,34.16
2019-05-12T10:32:04.037Z,33.52
2019-05-12T10:33:03.696Z,32.86
2019-05-12T10:34:03.418Z,32.49
2019-05-12T10:35:02.493Z,32.70
2019-05-12T10:36:06.868Z,32.42
2019-05-12T10:37:04.171Z,31.15
2019-05-12T10:38:06.294Z,31.59
2019-05-12T10:39:04.263Z,33.70
2019-05-12T10:40:03.701Z,34.84
2019-05-12T10:41:04.250Z,34.55
2019-05-12T10:42:02.508Z,33.89
2019-05-12T10:43:04.420Z,31.68
2019-05-12T10:44:04.092Z,29.09
2019-05-12T10:45:04.271Z,27.56
2019-05-12T10:46:04.238Z,27.64
2019-05-12T10:47:04.479Z,27.71
2019-05-12T10:48:03.598Z,27.53
2019-05-12T10:49:03.971Z,27.22
2019-05-12T10:50:02.546Z,27.22
2019-05-12T10:51:02.554Z,27.68
2019-05-12T10:52:03.883Z,27.68
2019-05-12T10:53:04.516Z,28.15
2019-05-12T10:54:11.794Z,27.67
2019-05-12T10:55:04.438Z,27.75
2019-05-12T10:56:02.574Z,28.44
2019-05-12T10:57:04.946Z,28.36
2019-05-12T10:58:06.399Z,28.47
2019-05-12T10:59:04.268Z,27.81
2019-05-12T11:00:04.128Z,27.53
2019-05-12T11:01:05.232Z,27.17
2019-05-12T11:02:03.547Z,26.59
2019-05-12T11:03:10.218Z,26.12
2019-05-12T11:04:03.939Z,26.59
2019-05-12T11:05:02.633Z,27.28
2019-05-12T11:06:07.142Z,27.00
2019-05-12T11:07:04.677Z,26.82
2019-05-12T11:08:06.383Z,26.37
2019-05-12T11:09:03.791Z,26.81
2019-05-12T11:10:14.918Z,26.92
2019-05-12T11:11:04.219Z,26.63
2019-05-12T11:12:03.458Z,26.15
2019-05-12T11:13:08.712Z,26.06
2019-05-12T11:14:03.949Z,26.82
2019-05-12T11:15:06.638Z,26.62
2019-05-12T11:16:03.778Z,26.89
2019-05-12T11:17:07.915Z,27.58
2019-05-12T11:18:02.698Z,27.87
2019-05-12T11:19:06.352Z,28.07
2019-05-12T11:20:04.140Z,28.55
2019-05-12T11:21:03.588Z,28.83
2019-05-12T11:22:03.653Z,29.96
2019-05-12T11:23:03.567Z,30.12
2019-05-12T11:24:03.833Z,30.21
2019-05-12T11:25:04.362Z,29.43
2019-05-12T11:26:03.900Z,28.37
2019-05-12T11:27:04.125Z,28.19
2019-05-12T11:28:03.784Z,26.56
2019-05-12T11:29:03.791Z,25.04
2019-05-12T11:30:04.295Z,24.76
2019-05-12T11:31:02.766Z,23.70
2019-05-12T11:32:02.772Z,24.37
2019-05-12T11:33:04.350Z,24.93
2019-05-12T11:34:04.840Z,25.03
2019-05-12T11:35:04.115Z,24.95
2019-05-12T11:36:04.397Z,24.77
2019-05-12T11:37:03.450Z,24.09
2019-05-12T11:38:04.392Z,24.38
2019-05-12T11:39:03.674Z,24.67
2019-05-12T11:40:04.311Z,24.67
2019-05-12T11:41:04.249Z,24.58
2019-05-12T11:42:04.190Z,23.83
2019-05-12T11:43:04.042Z,23.65
2019-05-12T11:44:03.962Z,22.88
2019-05-12T11:45:02.852Z,23.55
2019-05-12T11:46:02.856Z,23.65
2019-05-12T11:47:03.661Z,23.36
2019-05-12T11:48:07.975Z,23.95
2019-05-12T11:49:04.377Z,22.40
2019-05-12T11:50:05.055Z,22.69
2019-05-12T11:51:03.950Z,22.77
2019-05-12T11:52:09.678Z,24.21
2019-05-12T11:53:04.258Z,24.96
2019-05-12T11:54:03.628Z,25.35
2019-05-12T11:55:02.919Z,25.73
2019-05-12T11:56:07.709Z,25.16
2019-05-12T11:57:02.933Z,24.10
2019-05-12T11:58:06.800Z,23.81
2019-05-12T11:59:02.947Z,23.82
2019-05-12T12:00:05.303Z,23.92
2019-05-12T12:01:04.697Z,24.22
2019-05-12T12:02:02.965Z,23.43
2019-05-12T12:03:12.083Z,24.74
2019-05-12T12:04:03.719Z,27.31
2019-05-12T12:05:02.987Z,28.73
2019-05-12T12:06:02.995Z,29.95
2019-05-12T12:07:03.001Z,31.01
2019-05-12T12:08:03.922Z,31.78
2019-05-12T12:09:03.937Z,31.60
2019-05-12T12:10:03.699Z,30.27
2019-05-12T12:11:03.931Z,29.87
2019-05-12T12:12:07.182Z,29.97
2019-05-12T12:13:03.772Z,30.35
2019-05-12T12:14:06.414Z,30.45
2019-05-12T12:15:04.678Z,30.26
2019-05-12T12:16:06.879Z,29.55
2019-05-12T12:17:03.045Z,30.02
2019-05-12T12:18:12.407Z,31.64
2019-05-12T12:19:05.756Z,32.03
2019-05-12T12:20:03.781Z,32.60
2019-05-12T12:21:07.646Z,32.49
2019-05-12T12:22:04.395Z,32.68
2019-05-12T12:23:06.536Z,33.15
2019-05-12T12:24:03.947Z,34.47
2019-05-12T12:25:10.924Z,36.01
2019-05-12T12:26:03.965Z,36.20
2019-05-12T12:27:03.877Z,36.90
2019-05-12T12:28:04.407Z,37.26
2019-05-12T12:29:03.428Z,37.66
2019-05-12T12:30:15.754Z,37.55
2019-05-12T12:31:07.575Z,37.64
2019-05-12T12:32:03.079Z,37.07
2019-05-12T12:33:03.996Z,37.15
2019-05-12T12:34:03.084Z,37.43
2019-05-12T12:35:07.415Z,37.24
2019-05-12T12:36:04.087Z,37.43
2019-05-12T12:37:03.335Z,37.91
2019-05-12T12:38:03.831Z,37.53
2019-05-12T12:39:04.183Z,37.99
2019-05-12T12:40:04.273Z,38.85
2019-05-12T12:41:03.880Z,39.33
2019-05-12T12:42:04.391Z,38.66
2019-05-12T12:43:04.004Z,39.33
2019-05-12T12:44:04.579Z,37.97
2019-05-12T12:45:04.287Z,37.11
2019-05-12T12:46:03.105Z,35.96
2019-05-12T12:47:03.085Z,35.67
2019-05-12T12:48:03.079Z,36.22
2019-05-12T12:49:06.443Z,35.28
2019-05-12T12:50:04.016Z,35.48
2019-05-12T12:51:03.919Z,35.10
2019-05-12T12:52:03.357Z,34.04